Flight Track Log - Related Links

Times and Time Zones

All times are in EDT time to prevent confusion due to time zone crossing. See the SWA197 flight status page for this flight to view local times or setup timezone preferences in your user account.

Time Position Orientation Groundspeed Altitude Reporting Facility
EDT Latitude Longitude Course Direction KTS MPH feet Rate Location/Type
Tue 09:50:10 PM 33.4333 -112.0333 276° West 165 190 2,000  Level Phoenix TRACON
Tue 09:52:19 PM 33.4458 -112.1797 276° West 256 295 5,500 1,926 Climbing Albuquerque Center
Tue 09:53:20 PM 33.5142 -112.1650 10° North 283 326 8,100 2,656 Climbing Albuquerque Center
Tue 09:54:21 PM 33.5742 -112.0975 43° Northeast 293 337 10,900 2,488 Climbing Albuquerque Center
Tue 09:55:23 PM 33.6133 -112.0061 63° Northeast 325 374 13,200 2,000 Climbing Albuquerque Center
Tue 09:56:24 PM 33.6253 -111.8869 83° East 362 417 15,000 2,000 Climbing Albuquerque Center
Tue 09:57:26 PM 33.6386 -111.7528 83° East 395 455 17,300 2,683 Climbing Albuquerque Center
Tue 09:58:27 PM 33.6514 -111.6264 83° East 400 460 20,500 2,829 Climbing Albuquerque Center
Tue 09:59:29 PM 33.6683 -111.4694 83° East 400 460 23,100 2,146 Climbing Albuquerque Center
Tue 10:00:30 PM 33.6814 -111.3325 83° East 414 476 24,900 1,672 Climbing Albuquerque Center
Tue 10:01:31 PM 33.7283 -111.2019 67° East 434 499 26,500 1,561 Climbing Albuquerque Center
Tue 10:02:33 PM 33.7875 -111.0733 61° Northeast 441 507 28,100 1,512 Climbing Albuquerque Center
Tue 10:03:34 PM 33.8481 -110.9406 61° Northeast 452 520 29,600 1,220 Climbing Albuquerque Center
Tue 10:04:36 PM 33.9114 -110.8042 61° Northeast 461 531 30,600 1,024 Climbing Albuquerque Center
Tue 10:05:37 PM 33.9750 -110.6619 62° Northeast 477 549 31,700 1,463 Climbing Albuquerque Center
Tue 10:06:39 PM 34.0467 -110.5081 61° Northeast 482 555 33,600 1,659 Climbing Albuquerque Center
Tue 10:07:40 PM 34.1106 -110.3681 61° Northeast 481 554 35,100 1,230 Climbing Albuquerque Center
Tue 10:08:41 PM 34.1731 -110.2269 62° Northeast 479 551 36,100 919 Climbing Albuquerque Center
Tue 10:09:44 PM 34.2425 -110.0750 61° Northeast 480 552 37,000 1,073 Climbing Albuquerque Center
Tue 10:10:44 PM 34.3139 -109.9119 62° Northeast 486 559 38,300 992 Climbing Albuquerque Center
Tue 10:11:45 PM 34.3750 -109.7758 61° Northeast 486 559 39,000 341 Climbing Albuquerque Center
Tue 10:12:47 PM 34.4472 -109.6147 61° Northeast 486 559 39,000  Level Albuquerque Center
Tue 10:13:48 PM 34.5078 -109.4758 62° Northeast 486 559 39,000  Level Albuquerque Center
Tue 10:14:49 PM 34.5692 -109.3364 62° Northeast 486 559 39,000  Level Albuquerque Center
Tue 10:15:51 PM 34.6706 -109.2075 46° Northeast 481 554 39,000  Level Albuquerque Center
Tue 10:16:52 PM 34.7556 -109.0914 48° Northeast 481 554 39,000  Level Albuquerque Center
Tue 10:17:53 PM 34.8542 -108.9558 48° Northeast 481 554 39,000  Level Albuquerque Center
Tue 10:18:55 PM 34.9394 -108.8406 48° Northeast 481 554 39,000  Level Albuquerque Center
Tue 10:19:56 PM 35.0378 -108.7072 48° Northeast 479 551 39,000  Level Albuquerque Center
Tue 10:20:58 PM 35.1222 -108.5922 48° Northeast 479 551 39,000  Level Albuquerque Center
Tue 10:21:59 PM 35.2047 -108.4736 50° Northeast 479 551 39,000  Level Albuquerque Center
Tue 10:23:00 PM 35.3014 -108.3372 49° Northeast 477 549 39,000  Level Albuquerque Center
Tue 10:24:02 PM 35.3850 -108.2203 49° Northeast 477 549 39,000  Level Albuquerque Center
Tue 10:25:03 PM 35.4819 -108.0811 49° Northeast 477 549 39,000  Level Albuquerque Center
Tue 10:26:04 PM 35.5664 -107.9606 49° Northeast 482 555 39,000  Level Albuquerque Center
Tue 10:27:06 PM 35.6492 -107.8411 50° Northeast 482 555 39,000  Level Albuquerque Center
Tue 10:28:07 PM 35.7456 -107.7014 50° Northeast 482 555 39,000  Level Albuquerque Center
Tue 10:29:09 PM 35.8211 -107.5742 54° Northeast 486 559 39,000  Level Albuquerque Center
Tue 10:30:10 PM 35.9025 -107.4175 57° Northeast 490 564 39,000  Level Albuquerque Center
Tue 10:31:11 PM 35.9719 -107.2831 57° Northeast 488 562 39,000  Level Albuquerque Center
Tue 10:32:13 PM 36.0528 -107.1278 57° Northeast 487 560 39,000  Level Albuquerque Center
Tue 10:33:14 PM 36.1231 -106.9944 57° Northeast 487 560 39,000  Level Albuquerque Center
Tue 10:34:16 PM 36.1922 -106.8589 58° Northeast 487 560 39,000  Level Albuquerque Center
Tue 10:35:17 PM 36.2719 -106.7003 58° Northeast 487 560 39,000  Level Albuquerque Center
Tue 10:36:19 PM 36.3356 -106.5622 60° Northeast 486 559 39,000  Level Albuquerque Center
Tue 10:37:20 PM 36.3922 -106.4272 62° Northeast 477 549 39,000  Level Albuquerque Center
Tue 10:38:22 PM 36.4547 -106.2822 62° Northeast 475 547 39,000  Level Albuquerque Center
Tue 10:39:23 PM 36.5275 -106.1103 62° Northeast 470 541 39,000  Level Albuquerque Center
Tue 10:40:24 PM 36.5897 -105.9689 61° Northeast 468 539 39,000  Level Albuquerque Center
Tue 10:41:26 PM 36.6525 -105.8256 61° Northeast 468 539 39,000  Level Albuquerque Center
Tue 10:42:27 PM 36.7158 -105.6828 61° Northeast 470 541 39,000  Level Albuquerque Center
Tue 10:43:40 PM 36.7886 -105.5294 59° Northeast 468 539 39,000  Level Denver Center
Tue 10:44:30 PM 36.8458 -105.3806 64° Northeast 472 543 39,000  Level Albuquerque Center
Tue 10:45:32 PM 36.8886 -105.2225 71° East 477 549 39,000  Level Albuquerque Center
Tue 10:46:33 PM 36.9347 -105.0664 70° East 478 550 39,000  Level Albuquerque Center
Tue 10:47:35 PM 36.9814 -104.9072 70° East 484 557 39,000  Level Albuquerque Center
Tue 10:48:36 PM 37.0258 -104.7481 71° East 487 560 39,000  Level Albuquerque Center
Tue 10:49:38 PM 37.0717 -104.5950 69° East 479 551 39,000  Level Albuquerque Center
Tue 10:50:53 PM 37.1319 -104.3786 71° East 475 547 39,000  Level Denver Center
Tue 10:51:54 PM 37.1742 -104.2236 71° East 475 547 39,000  Level Denver Center
Tue 10:52:56 PM 37.2175 -104.0669 71° East 478 550 39,000  Level Denver Center
Tue 10:53:58 PM 37.2600 -103.9122 71° East 478 550 39,000  Level Denver Center
Tue 10:55:00 PM 37.3069 -103.7594 69° East 478 550 39,000  Level Denver Center
Tue 10:56:01 PM 37.3636 -103.5761 69° East 476 548 39,000  Level Denver Center
Tue 10:57:03 PM 37.4119 -103.4222 68° East 476 548 39,000  Level Denver Center
Tue 10:58:05 PM 37.4536 -103.2639 72° East 477 549 39,000  Level Denver Center
Tue 10:59:06 PM 37.4933 -103.1044 73° East 477 549 39,000  Level Denver Center
Tue 11:00:08 PM 37.5325 -102.9483 72° East 475 547 39,000  Level Denver Center
Tue 11:01:10 PM 37.5689 -102.7936 73° East 465 535 39,000  Level Denver Center
Tue 11:02:12 PM 37.6044 -102.6372 74° East 465 535 39,000  Level Denver Center
Tue 11:03:13 PM 37.6458 -102.4553 74° East 467 537 39,000  Level Kansas City Center
Tue 11:04:15 PM 37.6817 -102.3053 73° East 466 536 39,000  Level Denver Center
Tue 11:05:17 PM 37.7211 -102.1289 74° East 466 536 39,000  Level Denver Center
Tue 11:06:16 PM 37.7561 -101.9764 74° East 468 539 39,000  Level Kansas City Center
Tue 11:07:19 PM 37.7903 -101.8214 74° East 475 547 39,000  Level Kansas City Center
Tue 11:08:20 PM 37.8306 -101.6394 74° East 479 551 39,000  Level Kansas City Center
Tue 11:10:25 PM 37.9075 -101.3011 74° East 480 552 39,000  Level Denver Center
Tue 11:11:25 PM 37.9572 -101.1561 66° East 468 539 39,000  Level Kansas City Center
Tue 11:12:27 PM 38.0042 -101.0097 68° East 467 537 39,000  Level Kansas City Center
Tue 11:13:26 PM 38.0594 -100.8400 67° East 467 537 39,000  Level Kansas City Center
Tue 11:14:30 PM 38.1047 -100.6922 69° East 466 536 39,000  Level Kansas City Center
Tue 11:15:31 PM 38.1517 -100.5461 68° East 466 536 39,000  Level Kansas City Center
Tue 11:16:32 PM 38.2056 -100.3747 68° East 466 536 39,000  Level Kansas City Center
Tue 11:17:31 PM 38.2519 -100.2261 68° East 467 537 39,000  Level Kansas City Center
Tue 11:18:35 PM 38.2992 -100.0750 68° East 474 545 39,000  Level Kansas City Center
Tue 11:19:34 PM 38.3544 -99.8981 68° East 477 549 39,000  Level Kansas City Center
Tue 11:20:35 PM 38.4011 -99.7453 69° East 479 551 39,000  Level Kansas City Center
Tue 11:21:37 PM 38.4575 -99.5647 68° East 487 560 39,000  Level Kansas City Center
Tue 11:22:37 PM 38.5006 -99.4214 69° East 487 560 39,000  Level Kansas City Center
Tue 11:23:41 PM 38.5503 -99.2581 69° East 490 564 39,000  Level Kansas City Center
Tue 11:24:41 PM 38.6006 -99.0942 69° East 492 566 39,000  Level Kansas City Center
Tue 11:25:43 PM 38.6500 -98.9300 69° East 492 566 39,000  Level Kansas City Center
Tue 11:26:44 PM 38.7008 -98.7639 69° East 497 572 39,000  Level Kansas City Center
Tue 11:27:44 PM 38.7583 -98.5669 69° East 495 570 39,000  Level Kansas City Center
Tue 11:28:46 PM 38.8075 -98.4028 69° East 494 568 39,000  Level Kansas City Center
Tue 11:29:46 PM 38.8556 -98.2381 69° East 493 567 39,000  Level Kansas City Center
Tue 11:30:50 PM 38.9044 -98.0725 69° East 494 568 39,000  Level Kansas City Center
Tue 11:31:51 PM 38.9528 -97.9064 69° East 494 568 39,000  Level Kansas City Center
Tue 11:32:50 PM 38.9986 -97.7469 70° East 494 568 39,000  Level Kansas City Center
Tue 11:33:53 PM 39.0461 -97.5811 70° East 494 568 39,000  Level Kansas City Center
Tue 11:34:55 PM 39.0931 -97.4153 70° East 494 568 39,000  Level Kansas City Center
Tue 11:35:57 PM 39.1503 -97.2164 70° East 494 568 39,000  Level Kansas City Center
Tue 11:36:56 PM 39.1969 -97.0508 70° East 494 568 39,000  Level Kansas City Center
Tue 11:37:56 PM 39.2444 -96.8833 70° East 494 568 39,000  Level Kansas City Center
Tue 11:39:00 PM 39.2914 -96.7139 70° East 498 573 39,000  Level Kansas City Center
Tue 11:40:00 PM 39.3378 -96.5442 70° East 500 575 39,000  Level Kansas City Center
Tue 11:41:01 PM 39.3872 -96.3644 70° East 502 578 39,000  Level Kansas City Center
Tue 11:42:02 PM 39.4344 -96.1889 71° East 510 587 39,000  Level Kansas City Center
Tue 11:43:03 PM 39.4775 -96.0222 71° East 511 588 39,000  Level Kansas City Center
Tue 11:44:06 PM 39.5250 -95.8472 71° East 512 589 39,000  Level Kansas City Center
Tue 11:45:05 PM 39.5706 -95.6717 71° East 512 589 39,000  Level Kansas City Center
Tue 11:46:06 PM 39.6183 -95.4961 70° East 513 590 39,000  Level Kansas City Center
Tue 11:47:07 PM 39.6644 -95.3206 71° East 512 589 39,000  Level Kansas City Center
Tue 11:48:11 PM 39.7089 -95.1447 72° East 512 589 39,000  Level Kansas City Center
Tue 11:49:11 PM 39.7619 -94.9353 72° East 510 587 39,000  Level Kansas City Center
Tue 11:50:13 PM 39.8067 -94.7625 71° East 508 585 39,000  Level Kansas City Center
Tue 11:51:14 PM 39.8500 -94.5897 72° East 503 579 39,000  Level Kansas City Center
Tue 11:52:15 PM 39.8936 -94.4161 72° East 503 579 39,000  Level Kansas City Center
Tue 11:53:17 PM 39.9372 -94.2408 72° East 504 580 39,000  Level Kansas City Center
Tue 11:54:16 PM 39.9792 -94.0717 72° East 507 583 39,000  Level Kansas City Center
Tue 11:55:19 PM 40.0219 -93.8911 73° East 510 587 39,000  Level Kansas City Center
Tue 11:56:18 PM 40.0653 -93.7219 71° East 510 587 39,000  Level Kansas City Center
Tue 11:57:21 PM 40.1067 -93.5497 73° East 507 583 39,000  Level Kansas City Center
Tue 11:58:23 PM 40.1575 -93.3419 72° East 507 583 39,000  Level Kansas City Center
Tue 11:59:21 PM 40.1989 -93.1681 73° East 507 583 39,000  Level Kansas City Center
Wed 12:00:23 AM 40.2433 -92.9831 72° East 503 579 39,000  Level Kansas City Center
Wed 12:01:24 AM 40.2847 -92.8092 73° East 503 579 39,000  Level Kansas City Center
Wed 12:02:25 AM 40.3264 -92.6350 73° East 503 579 39,000  Level Kansas City Center
Wed 12:03:26 AM 40.3600 -92.4781 74° East 505 581 39,000  Level Kansas City Center
Wed 12:04:29 AM 40.4083 -92.2786 72° East 509 586 39,000  Level Kansas City Center
Wed 12:05:28 AM 40.4483 -92.1033 73° East 509 586 39,000  Level Kansas City Center
Wed 12:06:31 AM 40.4883 -91.9278 73° East 508 585 39,000  Level Kansas City Center
Wed 12:07:30 AM 40.5272 -91.7544 74° East 502 578 39,000  Level Chicago Center
Wed 12:08:30 AM 40.5656 -91.5825 74° East 499 574 39,000  Level Chicago Center
Wed 12:09:31 AM 40.6036 -91.4103 74° East 497 572 39,000  Level Chicago Center
Wed 12:10:31 AM 40.6475 -91.2142 74° East 498 573 39,000  Level Chicago Center
Wed 12:11:32 AM 40.6847 -91.0406 74° East 496 571 39,000  Level Chicago Center
Wed 12:12:33 AM 40.7225 -90.8656 74° East 496 571 39,000  Level Chicago Center
Wed 12:13:33 AM 40.7597 -90.6917 74° East 496 571 39,000  Level Chicago Center
Wed 12:14:34 AM 40.7975 -90.5175 74° East 495 570 39,000  Level Chicago Center
Wed 12:15:34 AM 40.8344 -90.3433 74° East 494 568 39,000  Level Chicago Center
Wed 12:16:35 AM 40.8708 -90.1714 74° East 494 568 39,000  Level Chicago Center
Wed 12:17:36 AM 40.9078 -89.9981 74° East 494 568 39,000  Level Chicago Center
Wed 12:18:36 AM 40.9419 -89.8233 75° East 493 567 39,000  Level Chicago Center
Wed 12:19:37 AM 40.9778 -89.6494 75° East 492 566 39,000  Level Chicago Center
Wed 12:20:37 AM 41.0158 -89.4600 75° East 493 567 39,000  Level Chicago Center
Wed 12:21:38 AM 41.0500 -89.2878 75° East 482 555 39,000  Level Chicago Center
Wed 12:22:39 AM 41.0814 -89.1267 75° East 489 563 39,000  Level Chicago Center
Wed 12:23:39 AM 41.1158 -88.9536 75° East 484 557 39,000  Level Chicago Center
Wed 12:24:40 AM 41.1486 -88.7778 76° East 490 564 39,000  Level Chicago Center
Wed 12:25:40 AM 41.1897 -88.5683 75° East 492 566 39,000  Level Chicago Center
Wed 12:26:41 AM 41.2244 -88.3931 75° East 494 568 39,000  Level Chicago Center
Wed 12:27:41 AM 41.2567 -88.2211 76° East 489 563 39,000  Level Chicago Center
Wed 12:28:42 AM 41.2894 -88.0489 76° East 493 567 39,000  Level Chicago Center
Wed 12:29:42 AM 41.3192 -87.8767 77° East 496 571 39,000  Level Chicago Center
Wed 12:30:43 AM 41.3519 -87.7050 76° East 490 564 39,000  Level Chicago Center
Wed 12:31:44 AM 41.3839 -87.5333 76° East 484 557 39,000  Level Chicago Center
Wed 12:32:44 AM 41.4156 -87.3603 76° East 484 557 39,000  Level Chicago Center
Wed 12:33:45 AM 41.4469 -87.1869 76° East 483 556 39,000  Level Chicago Center
Wed 12:34:45 AM 41.4781 -87.0119 77° East 484 557 39,000  Level Chicago Center
Wed 12:35:45 AM 41.5092 -86.8356 77° East 486 559 39,000  Level Chicago Center
Wed 12:36:46 AM 41.5428 -86.6447 77° East 487 560 39,000  Level Chicago Center
Wed 12:37:46 AM 41.5731 -86.4678 77° East 488 562 39,000  Level Chicago Center
Wed 12:38:47 AM 41.6025 -86.2911 77° East 489 563 39,000  Level Chicago Center
Wed 12:39:47 AM 41.6325 -86.1150 77° East 487 560 39,000  Level Chicago Center
Wed 12:40:48 AM 41.6625 -85.9375 77° East 487 560 39,000  Level Chicago Center
Wed 12:41:48 AM 41.6919 -85.7600 77° East 487 560 39,000  Level Chicago Center
Wed 12:42:49 AM 41.7228 -85.5808 77° East 487 560 39,000  Level Chicago Center
Wed 12:43:49 AM 41.7531 -85.3961 78° East 489 563 39,000  Level Chicago Center
Wed 12:44:50 AM 41.7811 -85.2164 78° East 491 565 39,000  Level Chicago Center
Wed 12:45:50 AM 41.8100 -85.0372 78° East 494 568 39,000  Level Chicago Center
Wed 12:46:50 AM 41.8383 -84.8589 78° East 493 567 39,000  Level Chicago Center
Wed 12:47:51 AM 41.8719 -84.6836 76° East 489 563 39,000  Level Chicago Center
Wed 12:48:51 AM 41.9094 -84.5106 74° East 488 562 39,000  Level Chicago Center
Wed 12:49:52 AM 41.9456 -84.3353 74° East 488 562 39,000  Level Chicago Center
Wed 12:50:52 AM 41.9825 -84.1531 75° East 488 562 39,000  Level Chicago Center
Wed 12:51:52 AM 42.0175 -83.9767 75° East 488 562 39,000  Level Chicago Center
Wed 12:52:53 AM 42.0544 -83.7986 74° East 495 570 39,000  Level Chicago Center
Wed 12:54:01 AM 42.0906 -83.6081 76° East 494 568 39,000  Level Cleveland Center
Wed 12:55:01 AM 42.1286 -83.4164 75° East 494 568 39,000  Level Cleveland Center
Wed 12:56:01 AM 42.1644 -83.2361 75° East 494 568 39,000  Level Cleveland Center
Wed 12:57:02 AM 42.2003 -83.0453 76° East 494 568 39,000  Level Cleveland Center
Wed 12:58:02 AM 42.2344 -82.8686 75° East 494 568 39,000  Level Cleveland Center
Wed 12:59:02 AM 42.2686 -82.6903 75° East 494 568 39,000  Level Cleveland Center
Wed 01:00:03 AM 42.3017 -82.5122 76° East 493 567 39,000  Level Cleveland Center
Wed 01:01:03 AM 42.3342 -82.3347 76° East 492 566 39,000  Level Cleveland Center
Wed 01:02:03 AM 42.3675 -82.1567 76° East 492 566 39,000  Level Cleveland Center
Wed 01:03:03 AM 42.4019 -81.9700 76° East 491 565 39,000  Level Cleveland Center
Wed 01:04:04 AM 42.4286 -81.8200 76° East 490 564 39,000  Level Cleveland Center
Wed 01:05:04 AM 42.4617 -81.6400 76° East 490 564 39,000  Level Cleveland Center
Wed 01:06:04 AM 42.4939 -81.4586 76° East 489 563 39,000 -50 Level Cleveland Center
Wed 01:07:04 AM 42.5256 -81.2775 77° East 489 563 38,900 -1,240 Descending Cleveland Center
Wed 01:08:05 AM 42.5567 -81.0986 77° East 487 560 36,500 -2,430 Descending Cleveland Center
Wed 01:09:05 AM 42.5872 -80.9186 77° East 486 559 34,000 -2,550 Descending Cleveland Center
Wed 01:10:05 AM 42.6169 -80.7456 77° East 474 545 31,400 -2,600 Descending Cleveland Center
Wed 01:11:05 AM 42.6467 -80.5772 76° East 459 528 28,800 -2,700 Descending Cleveland Center
Wed 01:12:05 AM 42.6744 -80.4092 77° East 455 524 26,000 -2,727 Descending Cleveland Center
Wed 01:13:06 AM 42.7017 -80.2414 77° East 453 521 23,300 -2,777 Descending Cleveland Center
Wed 01:14:06 AM 42.7292 -80.0783 77° East 444 511 20,400 -2,750 Descending Cleveland Center
Wed 01:15:06 AM 42.7561 -79.9069 78° East 432 497 17,800 -2,350 Descending Cleveland Center
Wed 01:16:06 AM 42.7811 -79.7544 77° East 418 481 15,700 -2,050 Descending Cleveland Center
Wed 01:17:06 AM 42.8044 -79.6083 78° East 400 460 13,700 -1,686 Descending Cleveland Center
Wed 01:18:07 AM 42.8267 -79.4700 78° East 375 432 12,300 -1,190 Descending Cleveland Center
Wed 01:19:07 AM 42.8464 -79.3453 78° East 337 388 11,300 -1,140 Descending Cleveland Center
Wed 01:20:08 AM 42.8639 -79.2325 78° East 324 373 10,000 -1,339 Descending Cleveland Center
Wed 01:21:08 AM 42.8819 -79.1119 78° East 317 365 8,600 -1,350 Descending Cleveland Center
Wed 01:22:08 AM 42.8981 -79.0064 78° East 301 346 7,300 -1,450 Descending Cleveland Center
Wed 01:23:08 AM 42.9269 -78.9031 69° East 294 338 5,700 -1,400 Descending Cleveland Center
Wed 01:24:08 AM 42.9822 -78.8336 43° Northeast 284 327 4,500 -900 Descending Cleveland Center
Wed 01:25:08 AM 43.0344 -78.7694 42° Northeast 251 289 3,900 -793 Descending Cleveland Center
Wed 01:26:09 AM 43.0669 -78.7128 52° Northeast 214 246 2,900 -793 Descending Cleveland Center
Wed 01:27:09 AM 43.0322 -78.6644 134° Southeast 177 204 2,300 -500 Descending Cleveland Center
Wed 01:28:09 AM 42.9889 -78.6672 183° South 154 177 1,900 -496 Descending Cleveland Center
Wed 01:29:10 AM 42.9647 -78.6969 222° Southwest 128 147 1,300 -397 Descending Cleveland Center
Wed 01:30:10 AM 42.9436 -78.7253 224° Southwest 126 145 1,100 -200 Descending Cleveland Center

Login

Don't have an account? Register now (free) for customized features, flight alerts, and more!